sensor_id;sensor_type;location;lat;lon;timestamp;P1;durP1;ratioP1;P2;durP2;ratioP2
16101;SDS011;56411;52.964;10.540;2022-08-19T00:00:36;19.73;;;12.77;;
16101;SDS011;56411;52.964;10.540;2022-08-19T00:03:04;18.35;;;12.95;;
16101;SDS011;56411;52.964;10.540;2022-08-19T00:05:31;22.90;;;12.90;;
16101;SDS011;56411;52.964;10.540;2022-08-19T00:07:59;18.58;;;12.98;;
16101;SDS011;56411;52.964;10.540;2022-08-19T00:10:26;20.02;;;12.70;;
16101;SDS011;56411;52.964;10.540;2022-08-19T00:12:53;18.70;;;12.45;;
16101;SDS011;56411;52.964;10.540;2022-08-19T00:15:21;17.70;;;12.02;;
16101;SDS011;56411;52.964;10.540;2022-08-19T00:17:49;19.52;;;12.98;;
16101;SDS011;56411;52.964;10.540;2022-08-19T00:20:18;18.52;;;12.25;;
16101;SDS011;56411;52.964;10.540;2022-08-19T00:22:47;19.33;;;12.82;;
16101;SDS011;56411;52.964;10.540;2022-08-19T00:25:14;21.92;;;13.13;;
16101;SDS011;56411;52.964;10.540;2022-08-19T00:27:41;19.20;;;12.00;;
16101;SDS011;56411;52.964;10.540;2022-08-19T00:30:09;17.13;;;11.77;;
16101;SDS011;56411;52.964;10.540;2022-08-19T00:32:38;17.77;;;12.23;;
16101;SDS011;56411;52.964;10.540;2022-08-19T00:35:06;16.17;;;11.65;;
16101;SDS011;56411;52.964;10.540;2022-08-19T00:37:34;20.20;;;12.23;;
16101;SDS011;56411;52.964;10.540;2022-08-19T00:40:02;20.15;;;12.20;;
16101;SDS011;56411;52.964;10.540;2022-08-19T00:42:31;18.85;;;12.45;;
16101;SDS011;56411;52.964;10.540;2022-08-19T00:44:58;18.48;;;11.93;;
16101;SDS011;56411;52.964;10.540;2022-08-19T00:47:25;17.40;;;12.20;;
16101;SDS011;56411;52.964;10.540;2022-08-19T00:49:53;18.17;;;12.48;;
16101;SDS011;56411;52.964;10.540;2022-08-19T00:52:24;21.17;;;13.27;;
16101;SDS011;56411;52.964;10.540;2022-08-19T00:54:55;18.60;;;13.10;;
16101;SDS011;56411;52.964;10.540;2022-08-19T00:57:25;19.73;;;12.98;;
16101;SDS011;56411;52.964;10.540;2022-08-19T00:59:54;20.25;;;12.85;;
16101;SDS011;56411;52.964;10.540;2022-08-19T01:02:24;19.67;;;12.50;;
16101;SDS011;56411;52.964;10.540;2022-08-19T01:04:54;19.83;;;12.65;;
16101;SDS011;56411;52.964;10.540;2022-08-19T01:07:21;18.77;;;12.27;;
16101;SDS011;56411;52.964;10.540;2022-08-19T01:09:48;19.90;;;12.90;;
16101;SDS011;56411;52.964;10.540;2022-08-19T01:12:15;21.33;;;12.82;;
16101;SDS011;56411;52.964;10.540;2022-08-19T01:14:43;19.95;;;12.32;;
16101;SDS011;56411;52.964;10.540;2022-08-19T01:17:11;21.20;;;12.13;;
16101;SDS011;56411;52.964;10.540;2022-08-19T01:19:41;22.67;;;12.93;;
16101;SDS011;56411;52.964;10.540;2022-08-19T01:22:13;20.73;;;12.75;;
16101;SDS011;56411;52.964;10.540;2022-08-19T01:24:47;18.88;;;12.40;;
16101;SDS011;56411;52.964;10.540;2022-08-19T01:27:14;18.80;;;12.45;;
16101;SDS011;56411;52.964;10.540;2022-08-19T01:29:42;21.55;;;12.98;;
16101;SDS011;56411;52.964;10.540;2022-08-19T01:32:11;19.98;;;12.88;;
16101;SDS011;56411;52.964;10.540;2022-08-19T01:34:40;20.33;;;12.77;;
16101;SDS011;56411;52.964;10.540;2022-08-19T01:37:12;19.10;;;12.50;;
16101;SDS011;56411;52.964;10.540;2022-08-19T01:39:41;19.88;;;12.85;;
16101;SDS011;56411;52.964;10.540;2022-08-19T01:42:09;17.95;;;12.63;;
16101;SDS011;56411;52.964;10.540;2022-08-19T01:44:38;20.80;;;12.90;;
16101;SDS011;56411;52.964;10.540;2022-08-19T01:47:06;22.08;;;13.52;;
16101;SDS011;56411;52.964;10.540;2022-08-19T01:49:34;19.42;;;12.80;;
16101;SDS011;56411;52.964;10.540;2022-08-19T01:52:02;19.25;;;12.68;;
16101;SDS011;56411;52.964;10.540;2022-08-19T01:54:30;18.63;;;12.65;;
16101;SDS011;56411;52.964;10.540;2022-08-19T01:57:00;19.15;;;12.35;;
16101;SDS011;56411;52.964;10.540;2022-08-19T01:59:32;18.63;;;13.27;;
16101;SDS011;56411;52.964;10.540;2022-08-19T02:02:01;17.77;;;12.88;;
16101;SDS011;56411;52.964;10.540;2022-08-19T02:04:31;19.85;;;13.20;;
16101;SDS011;56411;52.964;10.540;2022-08-19T02:06:57;19.05;;;12.70;;
16101;SDS011;56411;52.964;10.540;2022-08-19T02:09:24;20.63;;;13.23;;
16101;SDS011;56411;52.964;10.540;2022-08-19T02:11:51;17.90;;;11.80;;
16101;SDS011;56411;52.964;10.540;2022-08-19T02:14:18;18.55;;;12.18;;
16101;SDS011;56411;52.964;10.540;2022-08-19T02:16:47;16.90;;;11.60;;
16101;SDS011;56411;52.964;10.540;2022-08-19T02:19:14;16.60;;;11.38;;
16101;SDS011;56411;52.964;10.540;2022-08-19T02:21:40;19.27;;;11.93;;
16101;SDS011;56411;52.964;10.540;2022-08-19T02:24:08;19.95;;;12.23;;
16101;SDS011;56411;52.964;10.540;2022-08-19T02:26:35;17.88;;;11.60;;
16101;SDS011;56411;52.964;10.540;2022-08-19T02:29:02;17.90;;;12.32;;
16101;SDS011;56411;52.964;10.540;2022-08-19T02:31:29;17.30;;;11.57;;
16101;SDS011;56411;52.964;10.540;2022-08-19T02:33:58;17.73;;;11.13;;
16101;SDS011;56411;52.964;10.540;2022-08-19T02:36:26;18.45;;;11.30;;
16101;SDS011;56411;52.964;10.540;2022-08-19T02:38:53;19.38;;;11.10;;
16101;SDS011;56411;52.964;10.540;2022-08-19T02:41:21;19.13;;;11.30;;
16101;SDS011;56411;52.964;10.540;2022-08-19T02:43:50;17.25;;;11.27;;
16101;SDS011;56411;52.964;10.540;2022-08-19T02:46:22;16.48;;;11.40;;
16101;SDS011;56411;52.964;10.540;2022-08-19T02:48:52;16.38;;;10.98;;
16101;SDS011;56411;52.964;10.540;2022-08-19T02:51:23;17.58;;;10.95;;
16101;SDS011;56411;52.964;10.540;2022-08-19T02:53:51;16.13;;;11.02;;
16101;SDS011;56411;52.964;10.540;2022-08-19T02:56:18;15.50;;;10.80;;
16101;SDS011;56411;52.964;10.540;2022-08-19T02:58:45;19.40;;;11.35;;
16101;SDS011;56411;52.964;10.540;2022-08-19T03:01:18;17.33;;;11.25;;
16101;SDS011;56411;52.964;10.540;2022-08-19T03:03:47;18.27;;;10.63;;
16101;SDS011;56411;52.964;10.540;2022-08-19T03:06:15;16.08;;;11.13;;
16101;SDS011;56411;52.964;10.540;2022-08-19T03:08:44;16.15;;;10.68;;
16101;SDS011;56411;52.964;10.540;2022-08-19T03:11:12;16.38;;;11.27;;
16101;SDS011;56411;52.964;10.540;2022-08-19T03:13:40;17.45;;;11.68;;
16101;SDS011;56411;52.964;10.540;2022-08-19T03:16:08;16.58;;;10.82;;
16101;SDS011;56411;52.964;10.540;2022-08-19T03:18:36;17.88;;;11.32;;
16101;SDS011;56411;52.964;10.540;2022-08-19T03:21:03;17.17;;;11.60;;
16101;SDS011;56411;52.964;10.540;2022-08-19T03:23:31;17.90;;;11.73;;
16101;SDS011;56411;52.964;10.540;2022-08-19T03:26:02;16.70;;;11.50;;
16101;SDS011;56411;52.964;10.540;2022-08-19T03:28:31;17.98;;;11.30;;
16101;SDS011;56411;52.964;10.540;2022-08-19T03:31:00;17.92;;;11.57;;
16101;SDS011;56411;52.964;10.540;2022-08-19T03:33:28;20.75;;;10.70;;
16101;SDS011;56411;52.964;10.540;2022-08-19T03:35:59;17.95;;;11.38;;
16101;SDS011;56411;52.964;10.540;2022-08-19T03:38:32;18.02;;;11.32;;
16101;SDS011;56411;52.964;10.540;2022-08-19T03:41:03;18.67;;;11.30;;
16101;SDS011;56411;52.964;10.540;2022-08-19T03:43:33;16.25;;;9.93;;
16101;SDS011;56411;52.964;10.540;2022-08-19T03:46:01;16.10;;;10.80;;
16101;SDS011;56411;52.964;10.540;2022-08-19T03:48:30;17.17;;;10.75;;
16101;SDS011;56411;52.964;10.540;2022-08-19T03:50:57;18.08;;;10.88;;
16101;SDS011;56411;52.964;10.540;2022-08-19T03:53:25;18.55;;;11.23;;
16101;SDS011;56411;52.964;10.540;2022-08-19T03:55:53;19.00;;;10.68;;
16101;SDS011;56411;52.964;10.540;2022-08-19T03:58:22;16.23;;;10.57;;
16101;SDS011;56411;52.964;10.540;2022-08-19T04:00:49;16.85;;;10.57;;
16101;SDS011;56411;52.964;10.540;2022-08-19T04:03:16;15.68;;;10.27;;
16101;SDS011;56411;52.964;10.540;2022-08-19T04:05:44;17.70;;;10.95;;
16101;SDS011;56411;52.964;10.540;2022-08-19T04:08:12;18.27;;;10.75;;
16101;SDS011;56411;52.964;10.540;2022-08-19T04:10:43;16.95;;;10.60;;
16101;SDS011;56411;52.964;10.540;2022-08-19T04:13:10;16.85;;;11.30;;
16101;SDS011;56411;52.964;10.540;2022-08-19T04:15:40;15.25;;;10.10;;
16101;SDS011;56411;52.964;10.540;2022-08-19T04:18:07;17.20;;;11.18;;
16101;SDS011;56411;52.964;10.540;2022-08-19T04:20:38;15.38;;;11.07;;
16101;SDS011;56411;52.964;10.540;2022-08-19T04:23:06;16.77;;;11.35;;
16101;SDS011;56411;52.964;10.540;2022-08-19T04:25:37;16.67;;;11.02;;
16101;SDS011;56411;52.964;10.540;2022-08-19T04:28:05;19.73;;;12.52;;
16101;SDS011;56411;52.964;10.540;2022-08-19T04:30:39;20.08;;;12.15;;
16101;SDS011;56411;52.964;10.540;2022-08-19T04:33:07;18.60;;;11.82;;
16101;SDS011;56411;52.964;10.540;2022-08-19T04:35:35;19.05;;;12.40;;
16101;SDS011;56411;52.964;10.540;2022-08-19T04:38:03;18.73;;;12.10;;
16101;SDS011;56411;52.964;10.540;2022-08-19T04:40:31;18.50;;;11.80;;
16101;SDS011;56411;52.964;10.540;2022-08-19T04:43:15;19.13;;;12.30;;
16101;SDS011;56411;52.964;10.540;2022-08-19T04:45:44;17.92;;;12.38;;
16101;SDS011;56411;52.964;10.540;2022-08-19T04:48:13;19.20;;;12.75;;
16101;SDS011;56411;52.964;10.540;2022-08-19T04:50:41;20.85;;;13.68;;
16101;SDS011;56411;52.964;10.540;2022-08-19T04:53:09;21.65;;;13.18;;
16101;SDS011;56411;52.964;10.540;2022-08-19T04:55:38;20.38;;;13.18;;
16101;SDS011;56411;52.964;10.540;2022-08-19T04:58:06;21.48;;;13.60;;
16101;SDS011;56411;52.964;10.540;2022-08-19T05:00:33;22.13;;;12.73;;
16101;SDS011;56411;52.964;10.540;2022-08-19T05:03:01;19.25;;;12.63;;
16101;SDS011;56411;52.964;10.540;2022-08-19T05:05:28;19.38;;;12.88;;
16101;SDS011;56411;52.964;10.540;2022-08-19T05:07:56;22.40;;;13.07;;
16101;SDS011;56411;52.964;10.540;2022-08-19T05:10:23;20.15;;;13.07;;
16101;SDS011;56411;52.964;10.540;2022-08-19T05:12:50;19.85;;;12.85;;
16101;SDS011;56411;52.964;10.540;2022-08-19T05:15:17;19.73;;;12.85;;
16101;SDS011;56411;52.964;10.540;2022-08-19T05:17:44;19.50;;;13.05;;
16101;SDS011;56411;52.964;10.540;2022-08-19T05:20:27;20.08;;;13.23;;
16101;SDS011;56411;52.964;10.540;2022-08-19T05:23:11;20.80;;;12.57;;
16101;SDS011;56411;52.964;10.540;2022-08-19T05:25:40;17.73;;;11.82;;
16101;SDS011;56411;52.964;10.540;2022-08-19T05:28:07;18.83;;;12.45;;
16101;SDS011;56411;52.964;10.540;2022-08-19T05:30:34;18.45;;;11.65;;
16101;SDS011;56411;52.964;10.540;2022-08-19T05:33:01;19.77;;;11.50;;
16101;SDS011;56411;52.964;10.540;2022-08-19T05:35:30;18.52;;;12.68;;
16101;SDS011;56411;52.964;10.540;2022-08-19T05:37:56;19.70;;;11.77;;
16101;SDS011;56411;52.964;10.540;2022-08-19T05:40:23;19.25;;;13.07;;
16101;SDS011;56411;52.964;10.540;2022-08-19T05:42:50;22.42;;;12.25;;
16101;SDS011;56411;52.964;10.540;2022-08-19T05:45:18;21.55;;;13.43;;
16101;SDS011;56411;52.964;10.540;2022-08-19T05:47:47;22.42;;;12.80;;
16101;SDS011;56411;52.964;10.540;2022-08-19T05:50:14;20.60;;;12.93;;
16101;SDS011;56411;52.964;10.540;2022-08-19T05:52:43;21.92;;;12.85;;
16101;SDS011;56411;52.964;10.540;2022-08-19T05:55:11;23.00;;;13.65;;
16101;SDS011;56411;52.964;10.540;2022-08-19T05:57:38;20.58;;;12.80;;
16101;SDS011;56411;52.964;10.540;2022-08-19T06:00:05;24.08;;;13.73;;
16101;SDS011;56411;52.964;10.540;2022-08-19T06:02:35;20.45;;;13.32;;
16101;SDS011;56411;52.964;10.540;2022-08-19T06:05:03;21.35;;;13.82;;
16101;SDS011;56411;52.964;10.540;2022-08-19T06:07:34;23.23;;;15.05;;
16101;SDS011;56411;52.964;10.540;2022-08-19T06:10:02;25.15;;;14.85;;
16101;SDS011;56411;52.964;10.540;2022-08-19T06:12:29;23.02;;;14.40;;
16101;SDS011;56411;52.964;10.540;2022-08-19T06:14:59;24.02;;;14.55;;
16101;SDS011;56411;52.964;10.540;2022-08-19T06:17:27;23.95;;;14.52;;
16101;SDS011;56411;52.964;10.540;2022-08-19T06:19:55;23.33;;;14.93;;
16101;SDS011;56411;52.964;10.540;2022-08-19T06:22:23;25.27;;;15.27;;
16101;SDS011;56411;52.964;10.540;2022-08-19T06:24:50;24.65;;;15.02;;
16101;SDS011;56411;52.964;10.540;2022-08-19T06:27:20;26.08;;;16.05;;
16101;SDS011;56411;52.964;10.540;2022-08-19T06:29:47;23.85;;;14.88;;
16101;SDS011;56411;52.964;10.540;2022-08-19T06:32:15;24.75;;;14.90;;
16101;SDS011;56411;52.964;10.540;2022-08-19T06:34:43;25.20;;;15.40;;
16101;SDS011;56411;52.964;10.540;2022-08-19T06:37:10;26.98;;;17.23;;
16101;SDS011;56411;52.964;10.540;2022-08-19T06:39:38;24.83;;;15.82;;
16101;SDS011;56411;52.964;10.540;2022-08-19T06:42:07;30.67;;;16.45;;
16101;SDS011;56411;52.964;10.540;2022-08-19T06:44:38;23.75;;;15.90;;
16101;SDS011;56411;52.964;10.540;2022-08-19T06:47:07;25.58;;;16.63;;
16101;SDS011;56411;52.964;10.540;2022-08-19T06:49:35;27.40;;;17.10;;
16101;SDS011;56411;52.964;10.540;2022-08-19T06:52:03;25.50;;;16.40;;
16101;SDS011;56411;52.964;10.540;2022-08-19T06:54:30;26.52;;;16.55;;
16101;SDS011;56411;52.964;10.540;2022-08-19T06:56:58;26.75;;;16.92;;
16101;SDS011;56411;52.964;10.540;2022-08-19T06:59:27;27.23;;;17.40;;
16101;SDS011;56411;52.964;10.540;2022-08-19T07:01:59;24.70;;;17.27;;
16101;SDS011;56411;52.964;10.540;2022-08-19T07:04:30;26.60;;;17.40;;
16101;SDS011;56411;52.964;10.540;2022-08-19T07:06:59;28.23;;;17.95;;
16101;SDS011;56411;52.964;10.540;2022-08-19T07:09:28;30.23;;;17.85;;
16101;SDS011;56411;52.964;10.540;2022-08-19T07:11:55;31.75;;;20.50;;
16101;SDS011;56411;52.964;10.540;2022-08-19T07:14:24;28.83;;;18.25;;
16101;SDS011;56411;52.964;10.540;2022-08-19T07:16:52;30.83;;;18.05;;
16101;SDS011;56411;52.964;10.540;2022-08-19T07:19:23;27.77;;;17.67;;
16101;SDS011;56411;52.964;10.540;2022-08-19T07:21:53;30.42;;;19.55;;
16101;SDS011;56411;52.964;10.540;2022-08-19T07:24:22;31.00;;;18.75;;
16101;SDS011;56411;52.964;10.540;2022-08-19T07:26:50;30.20;;;18.48;;
16101;SDS011;56411;52.964;10.540;2022-08-19T07:29:19;27.60;;;18.60;;
16101;SDS011;56411;52.964;10.540;2022-08-19T07:31:48;30.70;;;18.65;;
16101;SDS011;56411;52.964;10.540;2022-08-19T07:34:15;29.60;;;18.80;;
16101;SDS011;56411;52.964;10.540;2022-08-19T07:36:44;32.08;;;19.58;;
16101;SDS011;56411;52.964;10.540;2022-08-19T07:39:12;28.85;;;19.02;;
16101;SDS011;56411;52.964;10.540;2022-08-19T07:41:41;32.33;;;20.05;;
16101;SDS011;56411;52.964;10.540;2022-08-19T07:44:08;29.38;;;19.02;;
16101;SDS011;56411;52.964;10.540;2022-08-19T07:46:36;30.05;;;20.05;;
16101;SDS011;56411;52.964;10.540;2022-08-19T07:49:05;30.48;;;19.25;;
16101;SDS011;56411;52.964;10.540;2022-08-19T07:51:33;30.73;;;19.58;;
16101;SDS011;56411;52.964;10.540;2022-08-19T07:54:02;29.67;;;18.75;;
16101;SDS011;56411;52.964;10.540;2022-08-19T07:56:29;30.98;;;19.23;;
16101;SDS011;56411;52.964;10.540;2022-08-19T07:58:56;29.30;;;19.58;;
16101;SDS011;56411;52.964;10.540;2022-08-19T08:01:25;31.00;;;20.70;;
16101;SDS011;56411;52.964;10.540;2022-08-19T08:03:53;35.03;;;21.35;;
16101;SDS011;56411;52.964;10.540;2022-08-19T08:06:39;31.67;;;19.63;;
16101;SDS011;56411;52.964;10.540;2022-08-19T08:09:25;33.28;;;20.30;;
16101;SDS011;56411;52.964;10.540;2022-08-19T08:11:57;34.55;;;22.50;;
16101;SDS011;56411;52.964;10.540;2022-08-19T08:14:26;34.03;;;22.48;;
16101;SDS011;56411;52.964;10.540;2022-08-19T08:16:55;36.88;;;21.98;;
16101;SDS011;56411;52.964;10.540;2022-08-19T08:19:23;33.88;;;22.05;;
16101;SDS011;56411;52.964;10.540;2022-08-19T08:21:53;34.60;;;21.63;;
16101;SDS011;56411;52.964;10.540;2022-08-19T08:24:21;35.63;;;23.05;;
16101;SDS011;56411;52.964;10.540;2022-08-19T08:26:49;34.15;;;22.73;;
16101;SDS011;56411;52.964;10.540;2022-08-19T08:29:16;33.22;;;20.75;;
16101;SDS011;56411;52.964;10.540;2022-08-19T08:31:44;33.75;;;22.17;;
16101;SDS011;56411;52.964;10.540;2022-08-19T08:34:12;34.30;;;22.38;;
16101;SDS011;56411;52.964;10.540;2022-08-19T08:36:41;34.15;;;21.55;;
16101;SDS011;56411;52.964;10.540;2022-08-19T08:39:10;34.40;;;22.10;;
16101;SDS011;56411;52.964;10.540;2022-08-19T08:41:40;32.42;;;20.80;;
16101;SDS011;56411;52.964;10.540;2022-08-19T08:44:18;32.55;;;21.45;;
16101;SDS011;56411;52.964;10.540;2022-08-19T08:46:49;32.97;;;21.33;;
16101;SDS011;56411;52.964;10.540;2022-08-19T08:49:23;31.95;;;20.60;;
16101;SDS011;56411;52.964;10.540;2022-08-19T08:51:58;31.48;;;20.50;;
16101;SDS011;56411;52.964;10.540;2022-08-19T08:54:30;33.25;;;20.33;;
16101;SDS011;56411;52.964;10.540;2022-08-19T08:56:59;30.17;;;19.67;;
16101;SDS011;56411;52.964;10.540;2022-08-19T08:59:28;32.33;;;20.83;;
16101;SDS011;56411;52.964;10.540;2022-08-19T09:01:58;30.65;;;19.65;;
16101;SDS011;56411;52.964;10.540;2022-08-19T09:04:26;29.10;;;19.75;;
16101;SDS011;56411;52.964;10.540;2022-08-19T09:06:55;28.13;;;18.58;;
16101;SDS011;56411;52.964;10.540;2022-08-19T09:09:30;30.40;;;19.23;;
16101;SDS011;56411;52.964;10.540;2022-08-19T09:12:03;27.42;;;17.95;;
16101;SDS011;56411;52.964;10.540;2022-08-19T09:14:39;28.48;;;18.58;;
16101;SDS011;56411;52.964;10.540;2022-08-19T09:17:12;28.63;;;18.05;;
16101;SDS011;56411;52.964;10.540;2022-08-19T09:19:46;27.65;;;18.20;;
16101;SDS011;56411;52.964;10.540;2022-08-19T09:22:23;26.35;;;16.77;;
16101;SDS011;56411;52.964;10.540;2022-08-19T09:24:52;28.63;;;17.75;;
16101;SDS011;56411;52.964;10.540;2022-08-19T09:27:20;26.52;;;17.30;;
16101;SDS011;56411;52.964;10.540;2022-08-19T09:29:50;24.33;;;16.33;;
16101;SDS011;56411;52.964;10.540;2022-08-19T09:32:18;26.98;;;16.33;;
16101;SDS011;56411;52.964;10.540;2022-08-19T09:34:45;24.17;;;16.45;;
16101;SDS011;56411;52.964;10.540;2022-08-19T09:37:12;24.77;;;16.27;;
16101;SDS011;56411;52.964;10.540;2022-08-19T09:39:40;24.95;;;16.13;;
16101;SDS011;56411;52.964;10.540;2022-08-19T09:42:07;24.20;;;15.85;;
16101;SDS011;56411;52.964;10.540;2022-08-19T09:44:37;26.42;;;16.65;;
16101;SDS011;56411;52.964;10.540;2022-08-19T09:47:06;24.33;;;16.13;;
16101;SDS011;56411;52.964;10.540;2022-08-19T09:49:33;25.00;;;16.58;;
16101;SDS011;56411;52.964;10.540;2022-08-19T09:52:00;26.88;;;18.02;;
16101;SDS011;56411;52.964;10.540;2022-08-19T09:54:28;28.13;;;16.83;;
16101;SDS011;56411;52.964;10.540;2022-08-19T09:56:55;27.27;;;17.60;;
16101;SDS011;56411;52.964;10.540;2022-08-19T09:59:25;30.75;;;18.67;;
16101;SDS011;56411;52.964;10.540;2022-08-19T10:01:52;27.83;;;18.08;;
16101;SDS011;56411;52.964;10.540;2022-08-19T10:04:21;27.52;;;17.30;;
16101;SDS011;56411;52.964;10.540;2022-08-19T10:07:08;25.17;;;16.73;;
16101;SDS011;56411;52.964;10.540;2022-08-19T10:09:35;28.95;;;17.70;;
16101;SDS011;56411;52.964;10.540;2022-08-19T10:12:03;27.15;;;17.33;;
16101;SDS011;56411;52.964;10.540;2022-08-19T10:14:30;26.38;;;16.60;;
16101;SDS011;56411;52.964;10.540;2022-08-19T10:16:57;27.05;;;16.90;;
16101;SDS011;56411;52.964;10.540;2022-08-19T10:19:26;25.75;;;16.27;;
16101;SDS011;56411;52.964;10.540;2022-08-19T10:21:55;30.02;;;17.95;;
16101;SDS011;56411;52.964;10.540;2022-08-19T10:24:22;28.25;;;17.80;;
16101;SDS011;56411;52.964;10.540;2022-08-19T10:26:50;31.63;;;17.92;;
16101;SDS011;56411;52.964;10.540;2022-08-19T10:29:17;29.02;;;18.58;;
16101;SDS011;56411;52.964;10.540;2022-08-19T10:31:44;31.92;;;18.30;;
16101;SDS011;56411;52.964;10.540;2022-08-19T10:34:12;29.50;;;18.20;;
16101;SDS011;56411;52.964;10.540;2022-08-19T10:36:40;27.08;;;17.05;;
16101;SDS011;56411;52.964;10.540;2022-08-19T10:39:08;30.67;;;17.80;;
16101;SDS011;56411;52.964;10.540;2022-08-19T10:41:37;25.30;;;17.35;;
16101;SDS011;56411;52.964;10.540;2022-08-19T10:44:06;29.58;;;17.88;;
16101;SDS011;56411;52.964;10.540;2022-08-19T10:46:35;29.98;;;18.95;;
16101;SDS011;56411;52.964;10.540;2022-08-19T10:49:03;29.23;;;17.73;;
16101;SDS011;56411;52.964;10.540;2022-08-19T10:51:31;29.77;;;18.17;;
16101;SDS011;56411;52.964;10.540;2022-08-19T10:54:17;26.33;;;16.92;;
16101;SDS011;56411;52.964;10.540;2022-08-19T10:56:45;26.73;;;18.13;;
16101;SDS011;56411;52.964;10.540;2022-08-19T10:59:17;27.80;;;18.17;;
16101;SDS011;56411;52.964;10.540;2022-08-19T11:01:45;27.42;;;17.23;;
16101;SDS011;56411;52.964;10.540;2022-08-19T11:04:13;27.45;;;17.70;;
16101;SDS011;56411;52.964;10.540;2022-08-19T11:06:42;28.05;;;17.67;;
16101;SDS011;56411;52.964;10.540;2022-08-19T11:09:12;27.73;;;16.52;;
16101;SDS011;56411;52.964;10.540;2022-08-19T11:11:41;27.98;;;17.58;;
16101;SDS011;56411;52.964;10.540;2022-08-19T11:14:09;25.48;;;16.02;;
16101;SDS011;56411;52.964;10.540;2022-08-19T11:16:39;26.05;;;16.67;;
16101;SDS011;56411;52.964;10.540;2022-08-19T11:19:06;25.80;;;16.02;;
16101;SDS011;56411;52.964;10.540;2022-08-19T11:21:36;25.65;;;15.68;;
16101;SDS011;56411;52.964;10.540;2022-08-19T11:24:05;25.20;;;16.27;;
16101;SDS011;56411;52.964;10.540;2022-08-19T11:26:35;25.88;;;16.10;;
16101;SDS011;56411;52.964;10.540;2022-08-19T11:29:05;25.88;;;15.82;;
16101;SDS011;56411;52.964;10.540;2022-08-19T11:31:36;25.83;;;17.17;;
16101;SDS011;56411;52.964;10.540;2022-08-19T11:34:05;26.52;;;16.92;;
16101;SDS011;56411;52.964;10.540;2022-08-19T11:36:33;27.08;;;17.98;;
16101;SDS011;56411;52.964;10.540;2022-08-19T11:39:04;29.15;;;16.85;;
16101;SDS011;56411;52.964;10.540;2022-08-19T11:41:31;26.98;;;17.50;;
16101;SDS011;56411;52.964;10.540;2022-08-19T11:43:58;30.92;;;19.73;;
16101;SDS011;56411;52.964;10.540;2022-08-19T11:46:29;30.73;;;18.35;;
16101;SDS011;56411;52.964;10.540;2022-08-19T11:48:57;27.25;;;17.20;;
16101;SDS011;56411;52.964;10.540;2022-08-19T11:51:25;27.10;;;18.52;;
16101;SDS011;56411;52.964;10.540;2022-08-19T11:53:54;25.77;;;16.67;;
16101;SDS011;56411;52.964;10.540;2022-08-19T11:56:22;25.50;;;16.23;;
16101;SDS011;56411;52.964;10.540;2022-08-19T11:58:50;24.75;;;17.27;;
16101;SDS011;56411;52.964;10.540;2022-08-19T12:01:19;27.60;;;17.30;;
16101;SDS011;56411;52.964;10.540;2022-08-19T12:03:49;24.45;;;17.00;;
16101;SDS011;56411;52.964;10.540;2022-08-19T12:06:19;26.98;;;17.60;;
16101;SDS011;56411;52.964;10.540;2022-08-19T12:08:48;23.60;;;16.80;;
16101;SDS011;56411;52.964;10.540;2022-08-19T12:11:15;23.65;;;16.77;;
16101;SDS011;56411;52.964;10.540;2022-08-19T12:13:42;24.58;;;16.77;;
16101;SDS011;56411;52.964;10.540;2022-08-19T12:16:11;26.77;;;18.40;;
16101;SDS011;56411;52.964;10.540;2022-08-19T12:18:40;24.23;;;16.35;;
16101;SDS011;56411;52.964;10.540;2022-08-19T12:21:11;22.67;;;15.82;;
16101;SDS011;56411;52.964;10.540;2022-08-19T12:23:38;24.85;;;17.45;;
16101;SDS011;56411;52.964;10.540;2022-08-19T12:26:05;22.27;;;16.23;;
16101;SDS011;56411;52.964;10.540;2022-08-19T12:28:35;25.80;;;16.45;;
16101;SDS011;56411;52.964;10.540;2022-08-19T12:31:02;24.08;;;16.88;;
16101;SDS011;56411;52.964;10.540;2022-08-19T12:33:29;24.35;;;16.70;;
16101;SDS011;56411;52.964;10.540;2022-08-19T12:35:59;22.42;;;15.10;;
16101;SDS011;56411;52.964;10.540;2022-08-19T12:38:29;25.38;;;17.55;;
16101;SDS011;56411;52.964;10.540;2022-08-19T12:40:57;26.02;;;17.77;;
16101;SDS011;56411;52.964;10.540;2022-08-19T12:43:24;24.40;;;16.88;;
16101;SDS011;56411;52.964;10.540;2022-08-19T12:45:51;23.50;;;16.10;;
16101;SDS011;56411;52.964;10.540;2022-08-19T12:48:18;24.35;;;16.73;;
16101;SDS011;56411;52.964;10.540;2022-08-19T12:50:45;26.05;;;18.13;;
16101;SDS011;56411;52.964;10.540;2022-08-19T12:53:12;23.80;;;17.92;;
16101;SDS011;56411;52.964;10.540;2022-08-19T12:55:41;24.30;;;17.63;;
16101;SDS011;56411;52.964;10.540;2022-08-19T12:58:08;23.77;;;17.23;;
16101;SDS011;56411;52.964;10.540;2022-08-19T13:00:37;27.08;;;17.55;;
16101;SDS011;56411;52.964;10.540;2022-08-19T13:03:04;24.33;;;16.73;;
16101;SDS011;56411;52.964;10.540;2022-08-19T13:05:31;24.17;;;17.10;;
16101;SDS011;56411;52.964;10.540;2022-08-19T13:08:00;28.08;;;18.90;;
16101;SDS011;56411;52.964;10.540;2022-08-19T13:10:28;23.67;;;16.83;;
16101;SDS011;56411;52.964;10.540;2022-08-19T13:12:57;22.98;;;16.50;;
16101;SDS011;56411;52.964;10.540;2022-08-19T13:15:26;23.63;;;16.77;;
16101;SDS011;56411;52.964;10.540;2022-08-19T13:17:56;23.13;;;16.40;;
16101;SDS011;56411;52.964;10.540;2022-08-19T13:20:24;24.98;;;17.15;;
16101;SDS011;56411;52.964;10.540;2022-08-19T13:22:52;24.40;;;17.10;;
16101;SDS011;56411;52.964;10.540;2022-08-19T13:25:20;23.05;;;16.25;;
16101;SDS011;56411;52.964;10.540;2022-08-19T13:27:47;22.33;;;16.15;;
16101;SDS011;56411;52.964;10.540;2022-08-19T13:30:18;24.50;;;16.50;;
16101;SDS011;56411;52.964;10.540;2022-08-19T13:33:03;23.00;;;16.17;;
16101;SDS011;56411;52.964;10.540;2022-08-19T13:35:36;21.77;;;15.02;;
16101;SDS011;56411;52.964;10.540;2022-08-19T13:38:03;26.02;;;17.98;;
16101;SDS011;56411;52.964;10.540;2022-08-19T13:40:31;22.70;;;17.02;;
16101;SDS011;56411;52.964;10.540;2022-08-19T13:42:59;23.00;;;16.40;;
16101;SDS011;56411;52.964;10.540;2022-08-19T13:45:29;24.92;;;16.67;;
16101;SDS011;56411;52.964;10.540;2022-08-19T13:47:57;24.05;;;17.02;;
16101;SDS011;56411;52.964;10.540;2022-08-19T13:50:26;24.58;;;16.30;;
16101;SDS011;56411;52.964;10.540;2022-08-19T13:52:56;28.27;;;18.02;;
16101;SDS011;56411;52.964;10.540;2022-08-19T13:55:24;26.25;;;18.02;;
16101;SDS011;56411;52.964;10.540;2022-08-19T13:57:52;26.45;;;17.73;;
16101;SDS011;56411;52.964;10.540;2022-08-19T14:00:20;24.90;;;16.92;;
16101;SDS011;56411;52.964;10.540;2022-08-19T14:02:51;26.75;;;17.75;;
16101;SDS011;56411;52.964;10.540;2022-08-19T14:05:19;25.73;;;17.02;;
16101;SDS011;56411;52.964;10.540;2022-08-19T14:07:46;24.88;;;17.13;;
16101;SDS011;56411;52.964;10.540;2022-08-19T14:10:14;25.67;;;17.33;;
16101;SDS011;56411;52.964;10.540;2022-08-19T14:12:41;25.50;;;17.00;;
16101;SDS011;56411;52.964;10.540;2022-08-19T14:15:09;23.98;;;16.70;;
16101;SDS011;56411;52.964;10.540;2022-08-19T14:17:39;25.33;;;17.85;;